createdAt,value
2023-01-29T01:37:42.527Z,15.10
2023-01-29T01:40:18.861Z,12.00
2023-01-29T01:42:51.305Z,10.00
2023-01-29T01:45:26.420Z,12.20
2023-01-29T01:48:00.128Z,19.00
2023-01-29T01:50:51.395Z,15.10
2023-01-29T01:53:24.311Z,15.90
2023-01-29T01:56:00.142Z,12.50
2023-01-29T01:58:59.296Z,11.80
2023-01-29T02:01:30.304Z,13.60
2023-01-29T02:04:22.334Z,12.10
2023-01-29T02:07:09.555Z,12.10
2023-01-29T02:10:01.121Z,9.20
2023-01-29T02:12:31.381Z,11.30
2023-01-29T02:14:59.878Z,16.10
2023-01-29T02:17:28.309Z,11.20
2023-01-29T02:20:08.679Z,14.30
2023-01-29T02:23:03.832Z,14.10
2023-01-29T02:26:14.302Z,14.40
2023-01-29T02:29:21.529Z,14.10
2023-01-29T02:32:20.170Z,14.50
2023-01-29T02:35:16.964Z,13.00
2023-01-29T02:37:57.437Z,16.20
2023-01-29T02:40:41.040Z,11.10
2023-01-29T02:43:54.327Z,13.70
2023-01-29T02:46:31.692Z,12.00
2023-01-29T02:49:16.205Z,14.90
2023-01-29T02:52:02.886Z,14.70
2023-01-29T02:54:45.549Z,18.00
2023-01-29T02:57:20.794Z,13.70
2023-01-29T02:59:58.102Z,12.70
2023-01-29T03:02:31.478Z,13.10
2023-01-29T03:05:02.146Z,10.60
2023-01-29T03:07:44.734Z,11.20
2023-01-29T03:10:23.859Z,14.50
2023-01-29T03:13:13.745Z,11.00
2023-01-29T03:15:47.000Z,11.00
2023-01-29T03:18:46.354Z,11.10
2023-01-29T03:21:45.055Z,9.30
2023-01-29T03:24:32.608Z,12.50
2023-01-29T03:27:21.661Z,14.30
2023-01-29T03:30:10.521Z,10.90
2023-01-29T03:33:06.083Z,8.70
2023-01-29T03:35:37.585Z,12.10
2023-01-29T03:38:10.092Z,11.60
2023-01-29T03:40:45.611Z,15.60
2023-01-29T03:43:36.160Z,11.60
2023-01-29T03:46:19.163Z,12.10
2023-01-29T03:48:50.343Z,9.40
2023-01-29T03:51:21.779Z,10.10
2023-01-29T03:54:57.898Z,11.90
2023-01-29T03:57:39.392Z,8.90
2023-01-29T04:00:21.434Z,9.70
2023-01-29T04:03:04.388Z,13.10
2023-01-29T04:05:42.852Z,12.20
2023-01-29T04:08:27.325Z,10.00
2023-01-29T04:10:57.614Z,13.30
2023-01-29T04:13:26.027Z,13.50
2023-01-29T04:15:58.658Z,14.10
2023-01-29T04:18:47.746Z,8.90
2023-01-29T04:21:16.692Z,10.90
2023-01-29T04:23:45.030Z,10.80
2023-01-29T04:26:45.589Z,10.30
2023-01-29T04:29:27.833Z,11.20
2023-01-29T04:32:39.001Z,11.30
2023-01-29T04:35:29.369Z,10.10
2023-01-29T04:38:09.295Z,10.80
2023-01-29T04:40:47.577Z,9.50
2023-01-29T04:43:25.743Z,10.80
2023-01-29T04:46:13.907Z,11.30
2023-01-29T04:49:25.277Z,10.40
2023-01-29T04:52:32.095Z,12.00
2023-01-29T04:55:09.731Z,15.70
2023-01-29T04:57:51.821Z,10.10
2023-01-29T05:00:26.244Z,15.50
2023-01-29T05:02:54.503Z,11.40
2023-01-29T05:05:22.760Z,8.60
2023-01-29T05:07:51.715Z,10.20
2023-01-29T05:10:20.492Z,14.30
2023-01-29T05:12:51.984Z,11.30
2023-01-29T05:15:23.536Z,9.60
2023-01-29T05:17:53.918Z,8.90
2023-01-29T05:20:22.063Z,12.80
2023-01-29T05:22:50.546Z,12.10
2023-01-29T05:25:24.500Z,9.70
2023-01-29T05:30:44.740Z,10.30
2023-01-29T05:33:18.869Z,10.80
2023-01-29T05:35:50.230Z,10.30
2023-01-29T05:38:18.707Z,11.10
2023-01-29T05:40:47.627Z,10.10
2023-01-29T05:43:26.352Z,12.10
2023-01-29T05:45:58.925Z,13.00
2023-01-29T05:48:32.587Z,12.20
2023-01-29T05:51:07.682Z,9.70
2023-01-29T05:53:37.284Z,7.80
2023-01-29T05:56:07.161Z,11.80
2023-01-29T05:58:35.442Z,10.40
2023-01-29T06:01:20.367Z,8.70
2023-01-29T06:03:49.118Z,8.20
2023-01-29T06:06:20.911Z,10.20
2023-01-29T06:08:49.408Z,10.80
2023-01-29T06:11:18.499Z,10.20
2023-01-29T06:13:48.024Z,11.70
2023-01-29T06:16:16.340Z,9.20
2023-01-29T06:18:45.022Z,14.60
2023-01-29T06:21:13.679Z,11.50
2023-01-29T06:23:43.679Z,10.50
2023-01-29T06:26:13.576Z,12.60
2023-01-29T06:28:42.486Z,9.70
2023-01-29T06:31:30.426Z,11.50
2023-01-29T06:33:59.157Z,10.00
2023-01-29T06:36:27.549Z,11.70
2023-01-29T06:38:59.148Z,10.00
2023-01-29T06:41:28.783Z,16.10
2023-01-29T06:43:58.278Z,11.50
2023-01-29T06:46:28.080Z,12.20
2023-01-29T06:48:59.854Z,12.90
2023-01-29T06:51:29.784Z,9.40
2023-01-29T06:53:58.095Z,15.60
2023-01-29T06:56:26.448Z,10.80
2023-01-29T06:58:54.899Z,12.00
2023-01-29T07:01:35.166Z,13.30
2023-01-29T07:04:05.506Z,12.30
2023-01-29T07:06:33.770Z,14.50
2023-01-29T07:09:03.920Z,12.20
2023-01-29T07:11:38.421Z,16.80
2023-01-29T10:50:36.683Z,22.20
2023-01-29T10:53:23.165Z,19.30
2023-01-29T10:56:05.772Z,22.40
2023-01-29T10:58:44.073Z,20.20
2023-01-29T11:01:12.083Z,23.80
2023-01-29T11:03:38.962Z,27.00
2023-01-29T11:06:18.876Z,37.60
2023-01-29T11:09:14.238Z,24.50
2023-01-29T11:11:42.943Z,22.90
2023-01-29T11:14:37.546Z,26.90
2023-01-29T11:17:04.489Z,36.20
2023-01-29T11:19:42.558Z,31.40
2023-01-29T11:22:14.746Z,23.90
2023-01-29T11:24:43.377Z,24.20
2023-01-29T11:27:32.688Z,21.20
2023-01-29T11:29:59.526Z,27.60
2023-01-29T11:32:32.447Z,19.90
2023-01-29T11:35:03.389Z,23.70
2023-01-29T11:37:36.680Z,20.40
2023-01-29T11:40:19.112Z,22.30
2023-01-29T11:42:46.328Z,20.00
2023-01-29T11:45:22.316Z,20.20
2023-01-29T11:47:53.588Z,25.90
2023-01-29T11:50:32.595Z,26.70
2023-01-29T11:52:59.919Z,27.40
2023-01-29T11:55:29.691Z,27.50
2023-01-29T11:58:12.042Z,23.40
2023-01-29T12:00:39.499Z,22.20
2023-01-29T12:03:15.764Z,28.40
2023-01-29T12:05:54.273Z,43.00
2023-01-29T12:08:23.040Z,93.40
2023-01-29T12:10:49.875Z,25.80
2023-01-29T12:13:27.401Z,38.20
2023-01-29T12:16:18.470Z,48.10
2023-01-29T12:18:52.624Z,32.20
2023-01-29T12:21:46.286Z,36.80
2023-01-29T12:24:25.556Z,26.00
2023-01-29T12:27:00.805Z,26.10
2023-01-29T12:29:30.788Z,23.70
2023-01-29T12:32:00.740Z,25.70
2023-01-29T12:35:02.235Z,19.60
2023-01-29T12:37:35.514Z,22.60
2023-01-29T12:40:17.561Z,23.80
2023-01-29T12:42:50.133Z,33.20
2023-01-29T12:45:22.551Z,24.90
2023-01-29T12:47:55.449Z,30.70
2023-01-29T12:50:42.818Z,23.50
2023-01-29T12:53:18.683Z,21.80
2023-01-29T12:55:48.186Z,18.80
2023-01-29T12:58:17.468Z,20.70
2023-01-29T13:00:45.748Z,19.50
2023-01-29T13:03:16.790Z,24.30
2023-01-29T13:05:52.485Z,28.30
2023-01-29T13:08:21.296Z,27.50
2023-01-29T13:10:53.404Z,20.20
2023-01-29T13:13:32.533Z,24.70
2023-01-29T13:16:00.510Z,20.40
2023-01-29T13:18:37.889Z,18.20
2023-01-29T13:21:04.751Z,20.80
2023-01-29T13:23:43.339Z,22.40
2023-01-29T13:26:13.816Z,21.00
2023-01-29T13:28:42.192Z,18.50
2023-01-29T13:31:37.806Z,21.10
2023-01-29T13:34:25.695Z,23.20
2023-01-29T13:36:56.743Z,19.10
2023-01-29T13:39:28.982Z,19.50
2023-01-29T13:41:56.987Z,20.90
2023-01-29T13:44:25.344Z,18.50
2023-01-29T13:47:02.704Z,18.40
2023-01-29T13:49:41.384Z,21.60
2023-01-29T13:52:16.851Z,17.40
2023-01-29T13:55:15.988Z,18.30
2023-01-29T13:57:50.358Z,20.10
2023-01-29T14:00:30.509Z,20.60
2023-01-29T14:03:00.047Z,21.40
2023-01-29T14:05:30.199Z,19.60
2023-01-29T14:07:59.221Z,20.10
2023-01-29T14:10:29.792Z,21.00
2023-01-29T14:13:19.056Z,22.20
2023-01-29T14:15:49.274Z,17.00
2023-01-29T14:18:20.596Z,22.90
2023-01-29T14:20:47.355Z,20.20
2023-01-29T14:23:35.500Z,21.50
2023-01-29T14:26:04.869Z,20.40
2023-01-29T14:28:33.076Z,19.50
2023-01-29T14:31:02.642Z,17.80
2023-01-29T14:33:32.425Z,34.90
2023-01-29T14:35:59.277Z,16.80
2023-01-29T14:38:27.146Z,21.30
2023-01-29T14:41:13.412Z,50.40
2023-01-29T14:43:40.406Z,23.50
2023-01-29T14:46:34.994Z,21.10
2023-01-29T14:49:02.513Z,27.10
2023-01-29T14:51:33.730Z,29.80
2023-01-29T14:54:04.507Z,19.40
2023-01-29T14:56:39.598Z,21.00
2023-01-29T14:59:17.526Z,19.30
2023-01-29T15:01:52.152Z,25.60
2023-01-29T15:06:55.471Z,18.40
2023-01-29T15:09:35.913Z,23.90
2023-01-29T15:12:33.154Z,18.70
2023-01-29T15:15:03.294Z,20.60
2023-01-29T15:17:42.889Z,18.80
2023-01-29T15:20:27.157Z,20.70
2023-01-29T15:22:54.409Z,23.80
2023-01-29T15:25:21.690Z,20.90
2023-01-29T15:27:48.493Z,22.20
2023-01-29T15:30:17.977Z,20.80
2023-01-29T15:32:44.970Z,24.20
2023-01-29T15:35:30.146Z,25.30
2023-01-29T15:38:19.943Z,68.40
2023-01-29T15:41:01.011Z,24.40
2023-01-29T15:43:35.044Z,20.70
2023-01-29T15:46:25.437Z,24.20
2023-01-29T15:48:53.675Z,22.80
2023-01-29T15:51:23.301Z,21.80
2023-01-29T15:54:00.663Z,24.00
2023-01-29T15:56:34.361Z,25.40
2023-01-29T15:59:04.063Z,21.60
2023-01-29T16:01:32.749Z,19.90
2023-01-29T16:04:01.928Z,21.90
2023-01-29T16:06:39.491Z,19.80
2023-01-29T19:57:54.494Z,12.50
2023-01-29T20:00:21.676Z,14.00
2023-01-29T20:02:54.348Z,10.00
2023-01-29T20:05:21.096Z,10.90
2023-01-29T20:07:49.393Z,9.80
2023-01-29T20:10:17.138Z,11.40
2023-01-29T20:12:45.200Z,10.40
2023-01-29T20:15:15.180Z,11.30
2023-01-29T20:17:43.067Z,9.30
2023-01-29T20:20:10.482Z,12.40
2023-01-29T20:22:37.471Z,11.70
2023-01-29T20:25:07.317Z,10.40
2023-01-29T20:27:36.036Z,9.90
2023-01-29T20:30:04.298Z,11.20
2023-01-29T20:32:32.400Z,13.40
2023-01-29T20:34:59.496Z,13.50
2023-01-29T20:37:26.395Z,11.10
2023-01-29T20:39:53.580Z,10.80
2023-01-29T20:42:21.800Z,10.10
2023-01-29T20:44:48.706Z,8.90
2023-01-29T20:47:15.565Z,8.60
2023-01-29T20:49:42.722Z,9.10
2023-01-29T20:52:10.295Z,10.60
2023-01-29T20:54:37.198Z,14.10
2023-01-29T20:57:04.090Z,10.00
2023-01-29T20:59:31.086Z,9.90
2023-01-29T21:01:57.842Z,11.60
2023-01-29T21:04:30.896Z,11.10
2023-01-29T21:06:58.107Z,12.40
2023-01-29T21:09:26.443Z,9.60
2023-01-29T21:11:53.237Z,9.70
2023-01-29T21:14:22.238Z,9.60
2023-01-29T21:16:49.343Z,7.00
2023-01-29T21:19:16.759Z,10.50
2023-01-29T21:21:44.027Z,10.80
2023-01-29T21:24:12.463Z,7.60
2023-01-29T21:26:39.625Z,8.80
2023-01-29T21:29:09.987Z,12.80
2023-01-29T21:31:37.636Z,9.60
2023-01-29T21:34:04.601Z,10.60
2023-01-29T21:36:33.214Z,10.60
2023-01-29T21:39:00.191Z,12.10
2023-01-29T21:41:45.768Z,13.30
2023-01-29T21:44:13.113Z,9.40
2023-01-29T21:46:39.808Z,10.20
2023-01-29T21:49:06.597Z,10.30
2023-01-29T21:51:34.281Z,8.80
2023-01-29T21:54:02.943Z,9.30
2023-01-29T21:56:30.527Z,9.70
2023-01-29T21:59:00.233Z,10.50
2023-01-29T22:01:40.875Z,8.30
2023-01-29T22:04:09.144Z,9.60
2023-01-29T22:06:36.031Z,11.00
